Putnam Station, New York
Current Conditions -  °F | °C
As of 5:15 PM on Monday 20 Oct 2014 (Local Time) from K6B0 Reporting Station
Overcast Overcast  
Wind Chill: 49°   Ceiling: 8000
Heat Index: 49°   Visibility: 10mi
Dew Point: 37°   Wind: 0mph
Humidity: 64%   Direction: NA
Pressure: 29.92"   Gusts: NA
Location:  43.74°N, 73.4°W
Report Text: K6B0 202115Z AUTO 00000KT 10SM OVC080 10/03 A2992 RMK AO2 T00950030
Loading
Personal Weather Stations






























Interactive Weather Map
Tropical Storm Tracking
New forecast layout! Learn more

10-Day Weather Forecast

Advertisements
Track Severe Weather on mobile